createdAt,value
2018-06-13T00:00:35.022Z,11.13
2018-06-13T00:03:04.266Z,8.60
2018-06-13T00:05:33.799Z,8.53
2018-06-13T00:08:03.430Z,16.77
2018-06-13T00:10:32.882Z,11.37
2018-06-13T00:13:02.189Z,9.97
2018-06-13T00:15:31.601Z,9.60
2018-06-13T00:18:00.921Z,10.07
2018-06-13T00:20:30.234Z,18.00
2018-06-13T00:22:59.590Z,11.37
2018-06-13T00:25:28.916Z,12.00
2018-06-13T00:27:58.206Z,9.60
2018-06-13T00:30:27.599Z,12.63
2018-06-13T00:32:57.103Z,10.30
2018-06-13T00:35:26.431Z,8.27
2018-06-13T00:37:55.902Z,12.82
2018-06-13T00:40:25.213Z,12.13
2018-06-13T00:42:54.643Z,10.03
2018-06-13T00:45:24.044Z,9.30
2018-06-13T00:47:53.536Z,8.13
2018-06-13T00:50:22.930Z,9.40
2018-06-13T00:52:52.178Z,11.13
2018-06-13T00:55:21.567Z,9.40
2018-06-13T00:57:50.926Z,9.63
2018-06-13T01:00:20.562Z,11.23
2018-06-13T01:02:49.922Z,13.77
2018-06-13T01:05:19.274Z,12.83
2018-06-13T01:07:48.550Z,9.93
2018-06-13T01:10:17.871Z,7.33
2018-06-13T01:12:47.161Z,12.73
2018-06-13T01:15:16.564Z,14.68
2018-06-13T01:17:45.843Z,10.10
2018-06-13T01:20:15.197Z,12.40
2018-06-13T01:22:44.548Z,12.40
2018-06-13T01:25:13.966Z,15.30
2018-06-13T01:27:43.354Z,14.73
2018-06-13T01:30:12.629Z,12.77
2018-06-13T01:32:42.274Z,13.07
2018-06-13T01:35:11.469Z,14.20
2018-06-13T01:37:40.915Z,17.30
2018-06-13T01:40:10.218Z,10.40
2018-06-13T01:42:39.543Z,12.43
2018-06-13T01:45:08.756Z,12.33
2018-06-13T01:47:38.033Z,10.97
2018-06-13T01:50:07.291Z,11.50
2018-06-13T01:52:36.574Z,12.63
2018-06-13T01:55:05.879Z,11.40
2018-06-13T01:57:35.169Z,10.90
2018-06-13T02:00:05.702Z,13.47
2018-06-13T02:02:35.620Z,9.13
2018-06-13T02:05:05.124Z,11.17
2018-06-13T02:07:34.424Z,11.77
2018-06-13T02:10:03.922Z,9.07
2018-06-13T02:12:33.248Z,13.03
2018-06-13T02:15:02.660Z,13.30
2018-06-13T02:17:31.865Z,11.43
2018-06-13T02:20:01.361Z,8.53
2018-06-13T02:22:30.672Z,8.13
2018-06-13T02:24:59.894Z,9.23
2018-06-13T02:27:29.143Z,10.20
2018-06-13T02:29:58.539Z,8.97
2018-06-13T02:32:27.828Z,14.77
2018-06-13T02:34:57.095Z,9.27
2018-06-13T02:37:26.539Z,8.23
2018-06-13T02:39:56.148Z,12.10
2018-06-13T02:42:25.482Z,7.87
2018-06-13T02:44:54.720Z,9.77
2018-06-13T02:47:24.058Z,8.90
2018-06-13T02:49:53.454Z,11.37
2018-06-13T02:52:22.802Z,8.40
2018-06-13T02:54:52.110Z,7.43
2018-06-13T02:57:22.236Z,11.97
2018-06-13T02:59:51.523Z,10.20
2018-06-13T03:02:20.779Z,8.53
2018-06-13T03:04:50.124Z,9.07
2018-06-13T03:07:19.467Z,7.60
2018-06-13T03:09:48.712Z,9.00
2018-06-13T03:12:18.030Z,8.13
2018-06-13T03:14:47.452Z,12.00
2018-06-13T03:17:16.689Z,8.43
2018-06-13T03:19:46.108Z,11.73
2018-06-13T03:22:15.359Z,15.20
2018-06-13T03:24:44.915Z,10.57
2018-06-13T03:27:14.254Z,9.40
2018-06-13T03:29:43.824Z,16.07
2018-06-13T03:32:13.147Z,13.23
2018-06-13T03:34:42.624Z,8.97
2018-06-13T03:37:11.932Z,13.63
2018-06-13T03:39:41.170Z,8.33
2018-06-13T03:42:10.549Z,11.40
2018-06-13T03:44:39.871Z,15.50
2018-06-13T03:47:09.275Z,10.43
2018-06-13T03:49:38.601Z,12.30
2018-06-13T03:52:08.383Z,10.60
2018-06-13T03:54:37.730Z,10.17
2018-06-13T03:57:07.000Z,12.90
2018-06-13T03:59:36.329Z,16.97
2018-06-13T04:02:05.985Z,14.40
2018-06-13T04:04:35.124Z,20.33
2018-06-13T04:07:04.554Z,18.50
2018-06-13T04:09:33.855Z,18.33
2018-06-13T04:12:03.228Z,20.80
2018-06-13T04:14:32.536Z,20.30
2018-06-13T04:17:01.849Z,21.43
2018-06-13T04:19:31.255Z,24.50
2018-06-13T04:22:00.624Z,26.70
2018-06-13T04:24:29.920Z,26.20
2018-06-13T04:26:59.331Z,21.77
2018-06-13T04:29:28.608Z,39.53
2018-06-13T04:31:58.022Z,23.17
2018-06-13T04:34:27.519Z,24.77
2018-06-13T04:36:56.754Z,25.37
2018-06-13T04:39:26.015Z,24.77
2018-06-13T04:41:55.504Z,28.40
2018-06-13T04:44:25.124Z,25.12
2018-06-13T04:46:55.449Z,23.87
2018-06-13T04:49:24.837Z,24.57
2018-06-13T04:51:54.836Z,25.43
2018-06-13T04:54:24.195Z,28.53
2018-06-13T04:56:53.556Z,28.07
2018-06-13T04:59:22.891Z,25.20
2018-06-13T05:01:52.182Z,25.27
2018-06-13T05:04:21.568Z,27.67
2018-06-13T05:06:50.973Z,24.80
2018-06-13T05:09:20.389Z,27.20
2018-06-13T05:11:49.530Z,25.77
2018-06-13T05:14:18.905Z,23.52
2018-06-13T05:16:48.278Z,27.80
2018-06-13T05:19:17.558Z,26.95
2018-06-13T05:21:47.083Z,25.72
2018-06-13T05:24:16.435Z,31.73
2018-06-13T05:26:45.826Z,27.67
2018-06-13T05:29:15.210Z,24.90
2018-06-13T05:31:48.347Z,29.55
2018-06-13T05:34:17.693Z,24.20
2018-06-13T05:36:47.044Z,24.35
2018-06-13T05:39:16.502Z,30.08
2018-06-13T05:41:45.889Z,27.55
2018-06-13T05:44:15.197Z,25.15
2018-06-13T05:46:44.533Z,25.32
2018-06-13T05:49:13.902Z,22.02
2018-06-13T05:51:43.292Z,23.77
2018-06-13T05:54:12.904Z,23.52
2018-06-13T05:56:42.299Z,23.00
2018-06-13T05:59:11.609Z,22.52
2018-06-13T06:01:41.023Z,24.37
2018-06-13T06:04:10.450Z,22.90
2018-06-13T06:06:39.818Z,21.70
2018-06-13T06:09:09.790Z,24.82
2018-06-13T06:11:39.022Z,24.27
2018-06-13T06:14:08.339Z,24.40
2018-06-13T06:16:37.680Z,25.52
2018-06-13T06:19:06.936Z,24.43
2018-06-13T06:21:36.311Z,26.45
2018-06-13T06:24:06.389Z,24.52
2018-06-13T06:26:35.711Z,21.37
2018-06-13T06:29:05.118Z,21.30
2018-06-13T06:31:34.455Z,23.25
2018-06-13T06:34:03.951Z,20.52
2018-06-13T06:36:33.520Z,21.20
2018-06-13T06:39:02.788Z,19.32
2018-06-13T06:41:32.247Z,22.32
2018-06-13T06:44:01.532Z,24.77
2018-06-13T06:46:30.978Z,20.65
2018-06-13T06:49:00.290Z,19.35
2018-06-13T06:51:29.631Z,23.27
2018-06-13T06:53:58.858Z,21.57
2018-06-13T06:56:28.384Z,22.22
2018-06-13T06:58:57.747Z,23.47
2018-06-13T07:01:27.240Z,22.65
2018-06-13T07:03:57.675Z,21.90
2018-06-13T07:06:27.008Z,20.65
2018-06-13T07:08:56.342Z,18.52
2018-06-13T07:11:25.844Z,19.17
2018-06-13T07:13:55.437Z,15.72
2018-06-13T07:16:24.838Z,17.35
2018-06-13T07:18:54.174Z,14.05
2018-06-13T07:21:23.675Z,18.37
2018-06-13T07:23:52.871Z,15.23
2018-06-13T07:26:22.245Z,17.07
2018-06-13T07:28:51.615Z,16.25
2018-06-13T07:31:20.966Z,14.73
2018-06-13T07:33:50.279Z,15.78
2018-06-13T07:36:19.634Z,12.73
2018-06-13T07:38:48.972Z,16.62
2018-06-13T07:41:19.269Z,13.88
2018-06-13T07:43:48.520Z,14.25
2018-06-13T07:46:17.907Z,13.60
2018-06-13T07:48:47.279Z,11.05
2018-06-13T07:51:16.695Z,10.70
2018-06-13T07:53:46.041Z,12.30
2018-06-13T07:56:15.374Z,15.53
2018-06-13T07:58:44.690Z,16.87
2018-06-13T08:01:14.201Z,12.10
2018-06-13T08:03:43.422Z,10.38
2018-06-13T08:06:12.701Z,11.18
2018-06-13T08:08:42.004Z,11.55
2018-06-13T08:11:11.380Z,15.03
2018-06-13T08:13:40.811Z,17.45
2018-06-13T08:16:10.355Z,21.05
2018-06-13T08:18:39.677Z,16.00
2018-06-13T08:21:08.935Z,18.30
2018-06-13T08:23:38.426Z,15.83
2018-06-13T08:26:07.913Z,14.85
2018-06-13T08:28:37.395Z,16.62
2018-06-13T08:31:06.869Z,16.45
2018-06-13T08:33:36.576Z,16.82
2018-06-13T08:36:06.032Z,17.80
2018-06-13T08:38:35.724Z,13.38
2018-06-13T08:41:05.102Z,16.62
2018-06-13T08:43:34.443Z,15.45
2018-06-13T08:46:04.172Z,18.95
2018-06-13T08:48:33.515Z,19.52
2018-06-13T08:51:02.971Z,22.98
2018-06-13T08:53:33.162Z,23.40
2018-06-13T08:56:02.556Z,17.85
2018-06-13T08:58:31.978Z,16.15
2018-06-13T09:01:01.715Z,15.45
2018-06-13T09:03:31.010Z,18.57
2018-06-13T09:06:00.642Z,17.00
2018-06-13T09:08:29.930Z,16.85
2018-06-13T09:10:59.313Z,18.07
2018-06-13T09:13:28.686Z,19.10
2018-06-13T09:15:57.908Z,16.25
2018-06-13T09:18:27.188Z,18.07
2018-06-13T09:20:56.553Z,17.67
2018-06-13T09:23:25.834Z,20.52
2018-06-13T09:25:55.188Z,22.93
2018-06-13T09:28:24.551Z,21.62
2018-06-13T09:30:53.746Z,24.52
2018-06-13T09:33:23.218Z,25.85
2018-06-13T09:35:52.521Z,34.48
2018-06-13T09:38:21.889Z,26.85
2018-06-13T09:40:51.029Z,33.00
2018-06-13T09:43:20.511Z,29.57
2018-06-13T09:45:49.962Z,30.32
2018-06-13T09:48:19.986Z,28.30
2018-06-13T09:50:49.486Z,28.62
2018-06-13T09:53:18.943Z,30.72
2018-06-13T09:55:48.322Z,33.60
2018-06-13T09:58:18.196Z,30.50
2018-06-13T10:00:52.442Z,31.27
2018-06-13T10:03:22.178Z,28.23
2018-06-13T10:05:51.500Z,29.82
2018-06-13T10:08:20.811Z,30.97
2018-06-13T10:10:50.144Z,28.90
2018-06-13T10:13:19.591Z,27.17
2018-06-13T10:15:49.150Z,21.60
2018-06-13T10:18:18.609Z,23.07
2018-06-13T10:20:47.885Z,22.67
2018-06-13T10:23:18.102Z,22.17
2018-06-13T10:25:47.536Z,20.50
2018-06-13T10:28:16.937Z,21.12
2018-06-13T10:30:46.350Z,19.00
2018-06-13T10:33:15.754Z,13.72
2018-06-13T10:35:45.270Z,12.73
2018-06-13T10:38:14.532Z,14.30
2018-06-13T10:40:43.950Z,15.60
2018-06-13T10:43:13.274Z,18.40
2018-06-13T10:45:42.958Z,15.40
2018-06-13T10:48:12.262Z,15.85
2018-06-13T10:50:41.812Z,19.55
2018-06-13T10:53:11.074Z,15.08
2018-06-13T10:55:40.411Z,14.47
2018-06-13T10:58:09.788Z,12.37
2018-06-13T11:00:39.204Z,17.52
2018-06-13T11:03:08.551Z,13.13
2018-06-13T11:05:37.799Z,10.65
2018-06-13T11:08:07.102Z,11.85
2018-06-13T11:10:36.510Z,11.85
2018-06-13T11:13:05.979Z,12.23
2018-06-13T11:15:35.227Z,12.43
2018-06-13T11:18:04.499Z,15.25
2018-06-13T11:20:34.125Z,17.75
2018-06-13T11:23:03.622Z,13.58
2018-06-13T11:25:33.036Z,17.30
2018-06-13T11:28:02.459Z,14.87
2018-06-13T11:30:31.813Z,18.10
2018-06-13T11:33:01.230Z,15.05
2018-06-13T11:35:30.551Z,17.60
2018-06-13T11:37:59.975Z,16.93
2018-06-13T11:40:29.319Z,18.27
2018-06-13T11:42:59.117Z,17.87
2018-06-13T11:45:28.618Z,17.95
2018-06-13T11:47:58.076Z,18.98
2018-06-13T11:50:27.472Z,20.10
2018-06-13T11:52:57.005Z,15.43
2018-06-13T11:55:27.014Z,17.57
2018-06-13T11:57:56.509Z,16.48
2018-06-13T12:00:26.150Z,20.43
2018-06-13T12:02:55.565Z,17.82
2018-06-13T12:05:28.248Z,17.73
2018-06-13T12:07:57.897Z,18.77
2018-06-13T12:10:27.413Z,15.25
2018-06-13T12:12:56.866Z,23.30
2018-06-13T12:15:26.383Z,25.35
2018-06-13T12:17:55.902Z,19.23
2018-06-13T12:20:25.514Z,18.77
2018-06-13T12:22:54.910Z,21.02
2018-06-13T12:25:24.310Z,19.70
2018-06-13T12:27:54.058Z,16.48
2018-06-13T12:30:23.604Z,15.20
2018-06-13T12:32:53.119Z,18.02
2018-06-13T12:35:22.566Z,17.55
2018-06-13T12:37:51.958Z,17.70
2018-06-13T12:40:21.620Z,19.12
2018-06-13T12:42:51.105Z,17.67
2018-06-13T12:45:20.540Z,15.95
2018-06-13T12:47:50.026Z,14.05
2018-06-13T12:50:19.524Z,15.43
2018-06-13T12:52:49.037Z,16.40
2018-06-13T12:55:18.593Z,15.48
2018-06-13T12:57:47.935Z,16.27
2018-06-13T13:00:17.277Z,16.97
2018-06-13T13:02:46.586Z,19.32
2018-06-13T13:05:15.769Z,15.75
2018-06-13T13:07:45.202Z,15.43
2018-06-13T13:10:15.343Z,15.93
2018-06-13T13:12:44.673Z,13.83
2018-06-13T13:15:14.130Z,20.17
2018-06-13T13:17:43.545Z,17.32
2018-06-13T13:20:12.933Z,14.83
2018-06-13T13:22:42.272Z,13.95
2018-06-13T13:25:11.569Z,20.95
2018-06-13T13:27:40.945Z,13.38
2018-06-13T13:30:10.359Z,19.07
2018-06-13T13:32:39.543Z,15.72
2018-06-13T13:35:08.991Z,15.35
2018-06-13T13:37:38.486Z,15.48
2018-06-13T13:40:08.098Z,16.35
2018-06-13T13:42:37.668Z,17.35
2018-06-13T13:45:07.264Z,14.25
2018-06-13T13:47:36.559Z,14.70
2018-06-13T13:50:05.974Z,13.45
2018-06-13T13:52:35.306Z,17.50
2018-06-13T13:55:04.716Z,15.00
2018-06-13T13:57:34.055Z,15.55
2018-06-13T14:00:03.424Z,14.23
2018-06-13T14:02:32.899Z,17.32
2018-06-13T14:05:02.155Z,13.85
2018-06-13T14:07:31.666Z,14.00
2018-06-13T14:10:01.134Z,14.13
2018-06-13T14:12:30.651Z,19.73
2018-06-13T14:15:00.095Z,17.48
2018-06-13T14:17:29.553Z,15.03
2018-06-13T14:19:58.990Z,16.37
2018-06-13T14:22:28.412Z,13.10
2018-06-13T14:24:57.903Z,15.58
2018-06-13T14:27:27.304Z,13.75
2018-06-13T14:29:56.775Z,14.38
2018-06-13T14:32:26.286Z,16.27
2018-06-13T14:34:55.599Z,12.00
2018-06-13T14:37:24.877Z,13.05
2018-06-13T14:39:54.232Z,13.03
2018-06-13T14:42:23.642Z,17.02
2018-06-13T14:44:53.044Z,14.07
2018-06-13T14:47:23.131Z,11.83
2018-06-13T14:49:52.609Z,11.43
2018-06-13T14:52:22.043Z,11.40
2018-06-13T14:54:51.548Z,14.85
2018-06-13T14:57:20.924Z,12.13
2018-06-13T14:59:50.330Z,12.23
2018-06-13T15:02:19.606Z,13.68
2018-06-13T15:04:48.963Z,12.85
2018-06-13T15:07:18.135Z,18.20
2018-06-13T15:09:47.443Z,12.90
2018-06-13T15:12:16.692Z,12.58
2018-06-13T15:14:46.193Z,13.38
2018-06-13T15:17:15.543Z,14.75
2018-06-13T15:19:45.862Z,13.72
2018-06-13T15:22:15.231Z,11.12
2018-06-13T15:24:44.660Z,14.98
2018-06-13T15:27:14.098Z,11.00
2018-06-13T15:29:43.494Z,12.15
2018-06-13T15:32:13.046Z,11.93
2018-06-13T15:34:43.060Z,11.48
2018-06-13T15:37:12.393Z,12.40
2018-06-13T15:39:41.734Z,13.90
2018-06-13T15:42:11.046Z,15.28
2018-06-13T15:44:40.502Z,10.98
2018-06-13T15:47:09.801Z,13.55
2018-06-13T15:49:39.162Z,10.25
2018-06-13T15:52:09.092Z,10.88
2018-06-13T15:54:38.521Z,12.60
2018-06-13T15:57:07.925Z,11.08
2018-06-13T15:59:37.254Z,13.88
2018-06-13T16:02:06.542Z,9.80
2018-06-13T16:04:36.060Z,13.50
2018-06-13T16:07:06.252Z,14.93
2018-06-13T16:09:35.754Z,14.03
2018-06-13T16:12:05.293Z,12.33
2018-06-13T16:14:34.810Z,10.50
2018-06-13T16:17:04.156Z,12.75
2018-06-13T16:19:34.008Z,9.78
2018-06-13T16:22:03.353Z,10.03
2018-06-13T16:24:32.834Z,9.40
2018-06-13T16:27:02.397Z,9.98
2018-06-13T16:29:32.085Z,12.68
2018-06-13T16:32:01.426Z,9.95
2018-06-13T16:34:30.716Z,10.68
2018-06-13T16:37:00.235Z,9.30
2018-06-13T16:39:29.624Z,15.38
2018-06-13T16:41:58.962Z,9.83
2018-06-13T16:44:28.331Z,12.00
2018-06-13T16:46:57.735Z,12.10
2018-06-13T16:49:27.051Z,9.25
2018-06-13T16:51:58.367Z,10.43
2018-06-13T16:54:38.377Z,11.97
2018-06-13T16:57:07.704Z,10.65
2018-06-13T16:59:37.067Z,10.65
2018-06-13T17:02:06.512Z,8.58
2018-06-13T17:04:36.018Z,7.90
2018-06-13T17:07:05.471Z,9.58
2018-06-13T17:09:34.652Z,8.60
2018-06-13T17:12:03.971Z,9.85
2018-06-13T17:14:33.295Z,12.82
2018-06-13T17:17:02.621Z,9.90
2018-06-13T17:19:31.946Z,7.42
2018-06-13T17:22:01.279Z,9.10
2018-06-13T17:24:31.681Z,8.28
2018-06-13T17:27:01.165Z,10.58
2018-06-13T17:29:30.421Z,8.73
2018-06-13T17:32:00.113Z,9.40
2018-06-13T17:34:29.283Z,10.03
2018-06-13T17:36:58.567Z,8.93
2018-06-13T17:39:27.876Z,8.53
2018-06-13T17:41:57.081Z,8.45
2018-06-13T17:44:26.487Z,8.37
2018-06-13T17:46:55.831Z,10.47
2018-06-13T17:49:25.413Z,7.95
2018-06-13T17:51:54.626Z,11.12
2018-06-13T17:54:24.150Z,8.30
2018-06-13T17:56:53.525Z,7.33
2018-06-13T17:59:22.805Z,7.53
2018-06-13T18:01:52.204Z,8.88
2018-06-13T18:04:21.597Z,7.40
2018-06-13T18:06:51.536Z,8.87
2018-06-13T18:09:20.938Z,10.30
2018-06-13T18:11:50.400Z,6.37
2018-06-13T18:14:19.925Z,7.55
2018-06-13T18:16:49.233Z,8.20
2018-06-13T18:19:18.813Z,6.75
2018-06-13T18:21:48.146Z,6.47
2018-06-13T18:24:17.447Z,7.40
2018-06-13T18:26:46.726Z,6.28
2018-06-13T18:29:15.979Z,6.58
2018-06-13T18:31:48.706Z,6.27
2018-06-13T18:34:18.197Z,6.83
2018-06-13T18:36:47.543Z,9.17
2018-06-13T18:39:16.889Z,7.70
2018-06-13T18:41:46.011Z,8.80
2018-06-13T18:44:15.330Z,12.20
2018-06-13T18:46:45.056Z,10.77
2018-06-13T18:49:15.387Z,15.20
2018-06-13T18:51:44.867Z,14.17
2018-06-13T18:54:14.627Z,14.03
2018-06-13T18:56:44.378Z,15.83
2018-06-13T18:59:13.987Z,13.43
2018-06-13T19:01:44.111Z,14.07
2018-06-13T19:04:13.534Z,13.77
2018-06-13T19:06:43.192Z,15.57
2018-06-13T19:09:12.883Z,12.87
2018-06-13T19:11:46.221Z,15.33
2018-06-13T19:14:21.300Z,14.87
2018-06-13T19:16:50.675Z,14.50
2018-06-13T19:19:24.295Z,14.97
2018-06-13T19:21:53.990Z,13.83
2018-06-13T19:24:23.719Z,16.57
2018-06-13T19:26:53.228Z,14.90
2018-06-13T19:29:23.111Z,15.97
2018-06-13T19:31:52.849Z,14.97
2018-06-13T19:34:23.768Z,15.60
2018-06-13T19:36:53.483Z,15.70
2018-06-13T19:39:43.475Z,15.87
2018-06-13T19:42:12.971Z,15.27
2018-06-13T19:44:54.176Z,17.50
2018-06-13T19:47:28.820Z,15.70
2018-06-13T19:50:04.795Z,15.90
2018-06-13T19:52:39.098Z,15.47
2018-06-13T19:55:13.503Z,19.27
2018-06-13T19:57:43.234Z,16.80
2018-06-13T20:00:12.579Z,17.60
2018-06-13T20:02:47.100Z,16.60
2018-06-13T20:05:21.782Z,16.53
2018-06-13T20:07:51.132Z,19.00
2018-06-13T20:10:20.868Z,15.33
2018-06-13T20:12:55.358Z,16.10
2018-06-13T20:15:29.819Z,16.37
2018-06-13T20:18:04.680Z,15.47
2018-06-13T20:20:34.269Z,18.33
2018-06-13T20:23:03.842Z,15.17
2018-06-13T20:25:39.323Z,16.83
2018-06-13T20:28:17.680Z,16.17
2018-06-13T20:30:52.246Z,16.90
2018-06-13T20:33:22.513Z,17.70
2018-06-13T20:35:51.963Z,17.27
2018-06-13T20:38:21.407Z,18.20
2018-06-13T20:40:51.214Z,16.53
2018-06-13T20:43:20.809Z,16.00
2018-06-13T20:45:50.393Z,16.33
2018-06-13T20:48:20.083Z,16.97
2018-06-13T20:50:51.356Z,16.73
2018-06-13T20:53:21.102Z,17.80
2018-06-13T20:55:50.610Z,17.73
2018-06-13T20:58:20.885Z,16.27
2018-06-13T21:00:50.576Z,15.43
2018-06-13T21:03:20.980Z,17.63
2018-06-13T21:05:50.645Z,15.47
2018-06-13T21:08:20.575Z,19.50
2018-06-13T21:10:50.093Z,15.77
2018-06-13T21:13:20.240Z,13.90
2018-06-13T21:15:55.840Z,17.87
2018-06-13T21:18:25.464Z,14.30
2018-06-13T21:20:55.079Z,14.63
2018-06-13T21:23:24.625Z,14.50
2018-06-13T21:25:54.492Z,15.20
2018-06-13T21:28:23.822Z,13.53
2018-06-13T21:30:53.174Z,14.03
2018-06-13T21:33:22.617Z,12.77
2018-06-13T21:35:52.088Z,13.30
2018-06-13T21:38:21.515Z,17.13
2018-06-13T21:40:51.200Z,12.93
2018-06-13T21:43:20.580Z,12.47
2018-06-13T21:45:51.158Z,14.37
2018-06-13T21:48:20.430Z,11.20
2018-06-13T21:50:49.635Z,14.90
2018-06-13T21:53:19.246Z,11.00
2018-06-13T21:55:48.877Z,11.23
2018-06-13T21:58:18.276Z,10.97
2018-06-13T22:00:47.831Z,12.87
2018-06-13T22:03:17.260Z,11.10
2018-06-13T22:05:46.562Z,10.27
2018-06-13T22:08:19.630Z,10.10
2018-06-13T22:10:49.071Z,10.53
2018-06-13T22:13:18.463Z,11.57
2018-06-13T22:15:47.811Z,10.43
2018-06-13T22:18:17.187Z,10.33
2018-06-13T22:20:46.537Z,12.43
2018-06-13T22:23:15.964Z,9.90
2018-06-13T22:25:45.262Z,10.97
2018-06-13T22:28:14.662Z,10.50
2018-06-13T22:30:44.058Z,9.17
2018-06-13T22:33:14.382Z,12.67
2018-06-13T22:35:43.796Z,11.17
2018-06-13T22:38:13.305Z,10.03
2018-06-13T22:40:42.807Z,10.30
2018-06-13T22:43:12.172Z,10.37
2018-06-13T22:45:41.890Z,10.20
2018-06-13T22:48:11.255Z,14.43
2018-06-13T22:50:40.986Z,10.23
2018-06-13T22:53:10.374Z,12.47
2018-06-13T22:55:39.828Z,9.77
2018-06-13T22:58:09.251Z,15.57
2018-06-13T23:01:10.292Z,12.07
2018-06-13T23:03:39.996Z,12.23
2018-06-13T23:06:10.535Z,14.27
2018-06-13T23:08:40.203Z,9.77
2018-06-13T23:11:09.454Z,10.70
2018-06-13T23:13:38.766Z,11.00
2018-06-13T23:16:08.487Z,11.87
2018-06-13T23:18:37.850Z,10.47
2018-06-13T23:21:07.381Z,13.93
2018-06-13T23:23:36.824Z,12.73
2018-06-13T23:26:06.354Z,12.17
2018-06-13T23:28:35.804Z,12.17
2018-06-13T23:31:05.334Z,13.60
2018-06-13T23:33:34.795Z,10.40
2018-06-13T23:36:04.227Z,12.67
2018-06-13T23:38:33.616Z,10.73
2018-06-13T23:41:03.057Z,10.77
2018-06-13T23:43:33.003Z,10.87
2018-06-13T23:46:02.534Z,10.87
2018-06-13T23:48:31.946Z,10.17
2018-06-13T23:51:01.266Z,12.80
2018-06-13T23:53:30.835Z,11.23
2018-06-13T23:56:00.378Z,10.63
2018-06-13T23:58:29.792Z,10.57
